sensor_id;sensor_type;location;lat;lon;timestamp;temperature;humidity
13426;DHT22;6785;57.918;12.530;2022-07-24T00:01:56;13.20;99.90
13426;DHT22;6785;57.918;12.530;2022-07-24T00:04:22;13.20;99.90
13426;DHT22;6785;57.918;12.530;2022-07-24T00:06:49;13.30;99.90
13426;DHT22;6785;57.918;12.530;2022-07-24T00:09:16;13.30;99.90
13426;DHT22;6785;57.918;12.530;2022-07-24T00:11:43;13.30;99.90
13426;DHT22;6785;57.918;12.530;2022-07-24T00:14:12;13.30;99.90
13426;DHT22;6785;57.918;12.530;2022-07-24T00:16:39;13.40;99.90
13426;DHT22;6785;57.918;12.530;2022-07-24T00:19:05;13.30;99.90
13426;DHT22;6785;57.918;12.530;2022-07-24T00:21:32;13.40;99.90
13426;DHT22;6785;57.918;12.530;2022-07-24T00:24:00;13.50;99.90
13426;DHT22;6785;57.918;12.530;2022-07-24T00:26:26;13.50;99.90
13426;DHT22;6785;57.918;12.530;2022-07-24T00:28:53;13.60;99.90
13426;DHT22;6785;57.918;12.530;2022-07-24T00:31:21;13.80;99.90
13426;DHT22;6785;57.918;12.530;2022-07-24T00:33:48;13.90;99.90
13426;DHT22;6785;57.918;12.530;2022-07-24T00:36:15;14.00;99.90
13426;DHT22;6785;57.918;12.530;2022-07-24T00:38:42;14.10;99.90
13426;DHT22;6785;57.918;12.530;2022-07-24T00:41:09;14.10;99.90
13426;DHT22;6785;57.918;12.530;2022-07-24T00:44:01;14.20;99.90
13426;DHT22;6785;57.918;12.530;2022-07-24T00:46:30;14.20;99.90
13426;DHT22;6785;57.918;12.530;2022-07-24T00:48:57;14.20;99.90
13426;DHT22;6785;57.918;12.530;2022-07-24T00:51:24;14.20;99.90
13426;DHT22;6785;57.918;12.530;2022-07-24T00:53:52;14.20;99.90
13426;DHT22;6785;57.918;12.530;2022-07-24T00:56:19;14.10;99.90
13426;DHT22;6785;57.918;12.530;2022-07-24T00:58:45;14.20;99.90
13426;DHT22;6785;57.918;12.530;2022-07-24T01:01:12;14.10;99.90
13426;DHT22;6785;57.918;12.530;2022-07-24T01:03:41;14.20;99.90
13426;DHT22;6785;57.918;12.530;2022-07-24T01:06:08;14.10;99.90
13426;DHT22;6785;57.918;12.530;2022-07-24T01:08:35;14.10;99.90
13426;DHT22;6785;57.918;12.530;2022-07-24T01:11:03;14.20;99.90
13426;DHT22;6785;57.918;12.530;2022-07-24T01:13:31;14.20;99.90
13426;DHT22;6785;57.918;12.530;2022-07-24T01:15:57;14.30;99.90
13426;DHT22;6785;57.918;12.530;2022-07-24T01:18:25;14.30;99.90
13426;DHT22;6785;57.918;12.530;2022-07-24T01:20:53;14.40;99.90
13426;DHT22;6785;57.918;12.530;2022-07-24T01:23:21;14.50;99.90
13426;DHT22;6785;57.918;12.530;2022-07-24T01:25:48;14.60;99.90
13426;DHT22;6785;57.918;12.530;2022-07-24T01:28:15;14.60;99.90
13426;DHT22;6785;57.918;12.530;2022-07-24T01:30:42;14.60;99.90
13426;DHT22;6785;57.918;12.530;2022-07-24T01:33:09;14.60;99.90
13426;DHT22;6785;57.918;12.530;2022-07-24T01:35:36;14.60;99.90
13426;DHT22;6785;57.918;12.530;2022-07-24T01:38:05;14.60;99.90
13426;DHT22;6785;57.918;12.530;2022-07-24T01:40:31;14.60;99.90
13426;DHT22;6785;57.918;12.530;2022-07-24T01:42:58;14.60;99.90
13426;DHT22;6785;57.918;12.530;2022-07-24T01:45:25;14.60;99.90
13426;DHT22;6785;57.918;12.530;2022-07-24T01:47:53;14.60;99.90
13426;DHT22;6785;57.918;12.530;2022-07-24T01:50:20;14.60;99.90
13426;DHT22;6785;57.918;12.530;2022-07-24T01:52:47;14.60;99.90
13426;DHT22;6785;57.918;12.530;2022-07-24T01:55:15;14.70;99.90
13426;DHT22;6785;57.918;12.530;2022-07-24T01:57:42;14.60;99.90
13426;DHT22;6785;57.918;12.530;2022-07-24T02:00:10;14.70;99.90
13426;DHT22;6785;57.918;12.530;2022-07-24T02:02:38;14.70;99.90
13426;DHT22;6785;57.918;12.530;2022-07-24T02:05:06;14.70;99.90
13426;DHT22;6785;57.918;12.530;2022-07-24T02:07:33;14.70;99.90
13426;DHT22;6785;57.918;12.530;2022-07-24T02:10:01;14.70;99.90
13426;DHT22;6785;57.918;12.530;2022-07-24T02:12:30;14.70;99.90
13426;DHT22;6785;57.918;12.530;2022-07-24T02:14:57;14.70;99.90
13426;DHT22;6785;57.918;12.530;2022-07-24T02:17:23;14.70;99.90
13426;DHT22;6785;57.918;12.530;2022-07-24T02:19:50;14.70;99.90
13426;DHT22;6785;57.918;12.530;2022-07-24T02:22:17;14.60;99.90
13426;DHT22;6785;57.918;12.530;2022-07-24T02:24:44;14.60;99.90
13426;DHT22;6785;57.918;12.530;2022-07-24T02:27:11;14.60;99.90
13426;DHT22;6785;57.918;12.530;2022-07-24T02:29:39;14.50;99.90
13426;DHT22;6785;57.918;12.530;2022-07-24T02:32:06;14.50;99.90
13426;DHT22;6785;57.918;12.530;2022-07-24T02:34:33;14.50;99.90
13426;DHT22;6785;57.918;12.530;2022-07-24T02:37:00;14.50;99.90
13426;DHT22;6785;57.918;12.530;2022-07-24T02:39:27;14.50;99.90
13426;DHT22;6785;57.918;12.530;2022-07-24T02:41:54;14.50;99.90
13426;DHT22;6785;57.918;12.530;2022-07-24T02:44:21;14.50;99.90
13426;DHT22;6785;57.918;12.530;2022-07-24T02:46:49;14.50;99.90
13426;DHT22;6785;57.918;12.530;2022-07-24T02:49:16;14.50;99.90
13426;DHT22;6785;57.918;12.530;2022-07-24T02:51:43;14.50;99.90
13426;DHT22;6785;57.918;12.530;2022-07-24T02:54:10;14.50;99.90
13426;DHT22;6785;57.918;12.530;2022-07-24T02:56:37;14.50;99.90
13426;DHT22;6785;57.918;12.530;2022-07-24T02:59:04;14.40;99.90
13426;DHT22;6785;57.918;12.530;2022-07-24T03:01:31;14.40;99.90
13426;DHT22;6785;57.918;12.530;2022-07-24T03:03:59;14.40;99.90
13426;DHT22;6785;57.918;12.530;2022-07-24T03:06:25;14.40;99.90
13426;DHT22;6785;57.918;12.530;2022-07-24T03:08:53;14.40;99.90
13426;DHT22;6785;57.918;12.530;2022-07-24T03:11:20;14.40;99.90
13426;DHT22;6785;57.918;12.530;2022-07-24T03:13:46;14.40;99.90
13426;DHT22;6785;57.918;12.530;2022-07-24T03:16:13;14.50;99.90
13426;DHT22;6785;57.918;12.530;2022-07-24T03:18:42;14.40;99.90
13426;DHT22;6785;57.918;12.530;2022-07-24T03:21:13;14.50;99.90
13426;DHT22;6785;57.918;12.530;2022-07-24T03:23:40;14.50;99.90
13426;DHT22;6785;57.918;12.530;2022-07-24T03:26:07;14.40;99.90
13426;DHT22;6785;57.918;12.530;2022-07-24T03:28:34;14.40;99.90
13426;DHT22;6785;57.918;12.530;2022-07-24T03:31:01;14.50;99.90
13426;DHT22;6785;57.918;12.530;2022-07-24T03:33:28;14.50;99.90
13426;DHT22;6785;57.918;12.530;2022-07-24T03:35:55;14.40;99.90
13426;DHT22;6785;57.918;12.530;2022-07-24T03:38:24;14.50;99.90
13426;DHT22;6785;57.918;12.530;2022-07-24T03:40:51;14.50;99.90
13426;DHT22;6785;57.918;12.530;2022-07-24T03:43:18;14.50;99.90
13426;DHT22;6785;57.918;12.530;2022-07-24T03:45:45;14.40;99.90
13426;DHT22;6785;57.918;12.530;2022-07-24T03:48:11;14.40;99.90
13426;DHT22;6785;57.918;12.530;2022-07-24T03:50:38;14.40;99.90
13426;DHT22;6785;57.918;12.530;2022-07-24T03:53:05;14.40;99.90
13426;DHT22;6785;57.918;12.530;2022-07-24T03:55:34;14.40;99.90
13426;DHT22;6785;57.918;12.530;2022-07-24T03:58:01;14.40;99.90
13426;DHT22;6785;57.918;12.530;2022-07-24T04:00:28;14.50;99.90
13426;DHT22;6785;57.918;12.530;2022-07-24T04:02:55;14.50;99.90
13426;DHT22;6785;57.918;12.530;2022-07-24T04:05:22;14.40;99.90
13426;DHT22;6785;57.918;12.530;2022-07-24T04:07:49;14.50;99.90
13426;DHT22;6785;57.918;12.530;2022-07-24T04:10:16;14.50;99.90
13426;DHT22;6785;57.918;12.530;2022-07-24T04:12:44;14.50;99.90
13426;DHT22;6785;57.918;12.530;2022-07-24T04:15:11;14.40;99.90
13426;DHT22;6785;57.918;12.530;2022-07-24T04:17:39;14.40;99.90
13426;DHT22;6785;57.918;12.530;2022-07-24T04:20:07;14.40;99.90
13426;DHT22;6785;57.918;12.530;2022-07-24T04:22:34;14.50;99.90
13426;DHT22;6785;57.918;12.530;2022-07-24T04:25:01;14.50;99.90
13426;DHT22;6785;57.918;12.530;2022-07-24T04:27:28;14.50;99.90
13426;DHT22;6785;57.918;12.530;2022-07-24T04:29:57;14.50;99.90
13426;DHT22;6785;57.918;12.530;2022-07-24T04:32:24;14.50;99.90
13426;DHT22;6785;57.918;12.530;2022-07-24T04:34:51;14.50;99.90
13426;DHT22;6785;57.918;12.530;2022-07-24T04:37:18;14.50;99.90
13426;DHT22;6785;57.918;12.530;2022-07-24T04:39:45;14.50;99.90
13426;DHT22;6785;57.918;12.530;2022-07-24T04:42:11;14.50;99.90
13426;DHT22;6785;57.918;12.530;2022-07-24T04:44:38;14.50;99.90
13426;DHT22;6785;57.918;12.530;2022-07-24T04:47:07;14.50;99.90
13426;DHT22;6785;57.918;12.530;2022-07-24T04:49:33;14.60;99.90
13426;DHT22;6785;57.918;12.530;2022-07-24T04:52:01;14.60;99.90
13426;DHT22;6785;57.918;12.530;2022-07-24T04:54:28;14.60;99.90
13426;DHT22;6785;57.918;12.530;2022-07-24T04:56:55;14.70;99.90
13426;DHT22;6785;57.918;12.530;2022-07-24T04:59:21;14.70;99.90
13426;DHT22;6785;57.918;12.530;2022-07-24T05:01:49;14.70;99.90
13426;DHT22;6785;57.918;12.530;2022-07-24T05:04:17;14.70;99.90
13426;DHT22;6785;57.918;12.530;2022-07-24T05:06:44;14.80;99.90
13426;DHT22;6785;57.918;12.530;2022-07-24T05:09:12;14.80;99.90
13426;DHT22;6785;57.918;12.530;2022-07-24T05:11:39;14.70;99.90
13426;DHT22;6785;57.918;12.530;2022-07-24T05:14:06;14.70;99.90
13426;DHT22;6785;57.918;12.530;2022-07-24T05:16:32;14.70;99.90
13426;DHT22;6785;57.918;12.530;2022-07-24T05:19:00;14.70;99.90
13426;DHT22;6785;57.918;12.530;2022-07-24T05:21:28;14.80;99.90
13426;DHT22;6785;57.918;12.530;2022-07-24T05:23:55;14.70;99.90
13426;DHT22;6785;57.918;12.530;2022-07-24T05:26:22;14.80;99.90
13426;DHT22;6785;57.918;12.530;2022-07-24T05:28:49;14.70;99.90
13426;DHT22;6785;57.918;12.530;2022-07-24T05:31:16;14.80;99.90
13426;DHT22;6785;57.918;12.530;2022-07-24T05:33:43;14.80;99.90
13426;DHT22;6785;57.918;12.530;2022-07-24T05:36:10;14.80;99.90
13426;DHT22;6785;57.918;12.530;2022-07-24T05:38:38;14.70;99.90
13426;DHT22;6785;57.918;12.530;2022-07-24T05:41:05;14.70;99.90
13426;DHT22;6785;57.918;12.530;2022-07-24T05:43:32;14.70;99.90
13426;DHT22;6785;57.918;12.530;2022-07-24T05:45:59;14.70;99.90
13426;DHT22;6785;57.918;12.530;2022-07-24T05:48:26;14.80;99.90
13426;DHT22;6785;57.918;12.530;2022-07-24T05:50:53;14.80;99.90
13426;DHT22;6785;57.918;12.530;2022-07-24T05:53:20;14.80;99.90
13426;DHT22;6785;57.918;12.530;2022-07-24T05:55:48;14.90;99.90
13426;DHT22;6785;57.918;12.530;2022-07-24T05:58:15;15.00;99.90
13426;DHT22;6785;57.918;12.530;2022-07-24T06:00:42;15.00;99.90
13426;DHT22;6785;57.918;12.530;2022-07-24T06:03:09;15.00;99.90
13426;DHT22;6785;57.918;12.530;2022-07-24T06:05:36;15.00;99.90
13426;DHT22;6785;57.918;12.530;2022-07-24T06:08:04;15.10;99.90
13426;DHT22;6785;57.918;12.530;2022-07-24T06:10:31;15.00;99.90
13426;DHT22;6785;57.918;12.530;2022-07-24T06:12:59;15.00;99.90
13426;DHT22;6785;57.918;12.530;2022-07-24T06:15:26;15.10;99.90
13426;DHT22;6785;57.918;12.530;2022-07-24T06:17:54;15.10;99.90
13426;DHT22;6785;57.918;12.530;2022-07-24T06:20:21;15.20;99.90
13426;DHT22;6785;57.918;12.530;2022-07-24T06:22:48;15.10;99.90
13426;DHT22;6785;57.918;12.530;2022-07-24T06:25:16;15.20;99.90
13426;DHT22;6785;57.918;12.530;2022-07-24T06:27:44;15.20;99.90
13426;DHT22;6785;57.918;12.530;2022-07-24T06:30:17;15.20;99.90
13426;DHT22;6785;57.918;12.530;2022-07-24T06:32:45;15.20;99.90
13426;DHT22;6785;57.918;12.530;2022-07-24T06:35:12;15.30;99.90
13426;DHT22;6785;57.918;12.530;2022-07-24T06:37:39;15.30;99.90
13426;DHT22;6785;57.918;12.530;2022-07-24T06:40:07;15.50;99.90
13426;DHT22;6785;57.918;12.530;2022-07-24T06:42:35;15.60;99.90
13426;DHT22;6785;57.918;12.530;2022-07-24T06:45:03;15.80;99.90
13426;DHT22;6785;57.918;12.530;2022-07-24T06:47:32;16.00;99.90
13426;DHT22;6785;57.918;12.530;2022-07-24T06:49:58;16.20;99.90
13426;DHT22;6785;57.918;12.530;2022-07-24T06:52:25;16.50;99.90
13426;DHT22;6785;57.918;12.530;2022-07-24T06:54:53;16.80;99.90
13426;DHT22;6785;57.918;12.530;2022-07-24T06:57:19;17.10;99.90
13426;DHT22;6785;57.918;12.530;2022-07-24T06:59:46;17.40;99.90
13426;DHT22;6785;57.918;12.530;2022-07-24T07:02:13;17.60;99.90
13426;DHT22;6785;57.918;12.530;2022-07-24T07:04:41;17.90;99.90
13426;DHT22;6785;57.918;12.530;2022-07-24T07:07:08;18.00;99.90
13426;DHT22;6785;57.918;12.530;2022-07-24T07:09:35;18.10;99.90
13426;DHT22;6785;57.918;12.530;2022-07-24T07:12:02;18.10;99.90
13426;DHT22;6785;57.918;12.530;2022-07-24T07:14:29;18.00;99.90
13426;DHT22;6785;57.918;12.530;2022-07-24T07:16:56;18.00;99.90
13426;DHT22;6785;57.918;12.530;2022-07-24T07:19:23;18.00;99.90
13426;DHT22;6785;57.918;12.530;2022-07-24T07:21:51;18.10;99.90
13426;DHT22;6785;57.918;12.530;2022-07-24T07:24:18;18.20;99.90
13426;DHT22;6785;57.918;12.530;2022-07-24T07:26:46;18.50;99.90
13426;DHT22;6785;57.918;12.530;2022-07-24T07:29:13;18.60;99.90
13426;DHT22;6785;57.918;12.530;2022-07-24T07:31:40;18.80;99.90
13426;DHT22;6785;57.918;12.530;2022-07-24T07:34:06;18.80;99.90
13426;DHT22;6785;57.918;12.530;2022-07-24T07:36:33;19.10;99.90
13426;DHT22;6785;57.918;12.530;2022-07-24T07:39:02;19.40;99.90
13426;DHT22;6785;57.918;12.530;2022-07-24T07:41:29;19.20;99.90
13426;DHT22;6785;57.918;12.530;2022-07-24T07:43:56;19.30;99.90
13426;DHT22;6785;57.918;12.530;2022-07-24T07:46:24;19.30;99.90
13426;DHT22;6785;57.918;12.530;2022-07-24T07:48:51;19.30;99.90
13426;DHT22;6785;57.918;12.530;2022-07-24T07:51:18;19.50;99.90
13426;DHT22;6785;57.918;12.530;2022-07-24T07:53:45;19.20;99.90
13426;DHT22;6785;57.918;12.530;2022-07-24T07:56:16;19.20;99.90
13426;DHT22;6785;57.918;12.530;2022-07-24T07:58:43;19.30;99.90
13426;DHT22;6785;57.918;12.530;2022-07-24T08:01:10;19.70;99.90
13426;DHT22;6785;57.918;12.530;2022-07-24T08:03:37;20.00;99.90
13426;DHT22;6785;57.918;12.530;2022-07-24T08:06:04;20.20;99.90
13426;DHT22;6785;57.918;12.530;2022-07-24T08:08:31;20.30;99.90
13426;DHT22;6785;57.918;12.530;2022-07-24T08:10:58;20.30;99.90
13426;DHT22;6785;57.918;12.530;2022-07-24T08:13:26;20.40;99.90
13426;DHT22;6785;57.918;12.530;2022-07-24T08:15:53;20.10;99.90
13426;DHT22;6785;57.918;12.530;2022-07-24T08:18:20;20.20;99.90
13426;DHT22;6785;57.918;12.530;2022-07-24T08:20:47;20.40;99.90
13426;DHT22;6785;57.918;12.530;2022-07-24T08:23:13;20.70;99.90
13426;DHT22;6785;57.918;12.530;2022-07-24T08:25:41;20.80;99.90
13426;DHT22;6785;57.918;12.530;2022-07-24T08:28:07;20.80;99.90
13426;DHT22;6785;57.918;12.530;2022-07-24T08:30:36;21.00;99.90
13426;DHT22;6785;57.918;12.530;2022-07-24T08:33:02;21.10;99.90
13426;DHT22;6785;57.918;12.530;2022-07-24T08:35:29;21.10;99.90
13426;DHT22;6785;57.918;12.530;2022-07-24T08:37:56;21.10;99.90
13426;DHT22;6785;57.918;12.530;2022-07-24T08:40:23;20.90;99.90
13426;DHT22;6785;57.918;12.530;2022-07-24T08:42:50;20.70;99.90
13426;DHT22;6785;57.918;12.530;2022-07-24T08:45:17;20.60;99.90
13426;DHT22;6785;57.918;12.530;2022-07-24T08:47:45;20.80;99.90
13426;DHT22;6785;57.918;12.530;2022-07-24T08:50:15;20.90;99.90
13426;DHT22;6785;57.918;12.530;2022-07-24T08:52:42;20.60;99.90
13426;DHT22;6785;57.918;12.530;2022-07-24T08:55:10;20.80;99.90
13426;DHT22;6785;57.918;12.530;2022-07-24T08:57:37;21.20;99.90
13426;DHT22;6785;57.918;12.530;2022-07-24T09:00:06;21.40;99.90
13426;DHT22;6785;57.918;12.530;2022-07-24T09:02:33;21.50;99.90
13426;DHT22;6785;57.918;12.530;2022-07-24T09:05:05;21.20;99.90
13426;DHT22;6785;57.918;12.530;2022-07-24T09:07:32;20.80;99.90
13426;DHT22;6785;57.918;12.530;2022-07-24T09:10:00;20.80;99.90
13426;DHT22;6785;57.918;12.530;2022-07-24T09:12:31;20.80;99.90
13426;DHT22;6785;57.918;12.530;2022-07-24T09:14:59;20.40;99.90
13426;DHT22;6785;57.918;12.530;2022-07-24T09:17:26;20.60;99.90
13426;DHT22;6785;57.918;12.530;2022-07-24T09:19:55;20.80;99.90
13426;DHT22;6785;57.918;12.530;2022-07-24T09:22:42;20.80;99.90
13426;DHT22;6785;57.918;12.530;2022-07-24T09:25:12;21.00;99.90
13426;DHT22;6785;57.918;12.530;2022-07-24T09:27:43;20.90;99.90
13426;DHT22;6785;57.918;12.530;2022-07-24T09:30:21;20.60;99.90
13426;DHT22;6785;57.918;12.530;2022-07-24T09:32:52;20.40;99.90
13426;DHT22;6785;57.918;12.530;2022-07-24T09:35:22;20.40;99.90
13426;DHT22;6785;57.918;12.530;2022-07-24T09:37:54;20.60;99.90
13426;DHT22;6785;57.918;12.530;2022-07-24T09:40:24;20.80;99.90
13426;DHT22;6785;57.918;12.530;2022-07-24T09:42:56;20.60;99.90
13426;DHT22;6785;57.918;12.530;2022-07-24T09:45:54;20.20;99.90
13426;DHT22;6785;57.918;12.530;2022-07-24T09:48:23;20.20;99.90
13426;DHT22;6785;57.918;12.530;2022-07-24T09:50:51;20.00;99.90
13426;DHT22;6785;57.918;12.530;2022-07-24T09:53:21;19.90;99.90
13426;DHT22;6785;57.918;12.530;2022-07-24T09:56:00;19.70;99.90
13426;DHT22;6785;57.918;12.530;2022-07-24T09:58:29;19.80;99.90
13426;DHT22;6785;57.918;12.530;2022-07-24T10:00:57;20.00;99.90
13426;DHT22;6785;57.918;12.530;2022-07-24T10:03:28;20.20;99.90
13426;DHT22;6785;57.918;12.530;2022-07-24T10:05:59;20.20;99.90
13426;DHT22;6785;57.918;12.530;2022-07-24T10:08:28;20.10;99.90
13426;DHT22;6785;57.918;12.530;2022-07-24T10:10:55;20.00;99.90
13426;DHT22;6785;57.918;12.530;2022-07-24T10:13:23;19.90;99.90
13426;DHT22;6785;57.918;12.530;2022-07-24T10:18:54;19.70;99.90
13426;DHT22;6785;57.918;12.530;2022-07-24T10:21:23;19.90;99.90
13426;DHT22;6785;57.918;12.530;2022-07-24T10:24:12;20.20;99.90
13426;DHT22;6785;57.918;12.530;2022-07-24T10:26:45;20.50;99.90
13426;DHT22;6785;57.918;12.530;2022-07-24T10:29:16;20.60;99.90
13426;DHT22;6785;57.918;12.530;2022-07-24T10:31:45;20.70;99.90
13426;DHT22;6785;57.918;12.530;2022-07-24T10:34:18;20.60;99.90
13426;DHT22;6785;57.918;12.530;2022-07-24T10:36:51;20.60;99.90
13426;DHT22;6785;57.918;12.530;2022-07-24T10:39:25;20.70;99.90
13426;DHT22;6785;57.918;12.530;2022-07-24T10:42:00;20.80;99.90
13426;DHT22;6785;57.918;12.530;2022-07-24T10:44:28;20.90;99.90
13426;DHT22;6785;57.918;12.530;2022-07-24T10:46:59;21.00;99.90
13426;DHT22;6785;57.918;12.530;2022-07-24T10:49:43;21.10;99.90
13426;DHT22;6785;57.918;12.530;2022-07-24T10:52:20;21.30;99.90
13426;DHT22;6785;57.918;12.530;2022-07-24T10:55:19;21.40;99.90
13426;DHT22;6785;57.918;12.530;2022-07-24T10:57:47;21.40;99.90
13426;DHT22;6785;57.918;12.530;2022-07-24T11:00:25;21.20;99.90
13426;DHT22;6785;57.918;12.530;2022-07-24T11:02:57;21.10;99.90
13426;DHT22;6785;57.918;12.530;2022-07-24T11:05:26;20.90;99.90
13426;DHT22;6785;57.918;12.530;2022-07-24T11:08:26;20.90;99.90
13426;DHT22;6785;57.918;12.530;2022-07-24T11:11:01;21.00;99.90
13426;DHT22;6785;57.918;12.530;2022-07-24T11:13:56;21.20;99.90
13426;DHT22;6785;57.918;12.530;2022-07-24T11:16:34;21.30;99.90
13426;DHT22;6785;57.918;12.530;2022-07-24T11:19:29;21.40;99.90
13426;DHT22;6785;57.918;12.530;2022-07-24T11:22:05;21.60;99.90
13426;DHT22;6785;57.918;12.530;2022-07-24T11:24:32;21.80;99.90
13426;DHT22;6785;57.918;12.530;2022-07-24T11:27:05;21.80;99.90
13426;DHT22;6785;57.918;12.530;2022-07-24T11:29:34;21.80;99.90
13426;DHT22;6785;57.918;12.530;2022-07-24T11:32:03;21.50;99.90
13426;DHT22;6785;57.918;12.530;2022-07-24T11:34:31;21.20;99.90
13426;DHT22;6785;57.918;12.530;2022-07-24T11:36:59;21.20;99.90
13426;DHT22;6785;57.918;12.530;2022-07-24T11:39:28;21.20;99.90
13426;DHT22;6785;57.918;12.530;2022-07-24T11:41:57;21.20;99.90
13426;DHT22;6785;57.918;12.530;2022-07-24T11:44:27;21.30;99.90
13426;DHT22;6785;57.918;12.530;2022-07-24T11:46:56;21.30;99.90
13426;DHT22;6785;57.918;12.530;2022-07-24T11:49:24;21.30;99.90
13426;DHT22;6785;57.918;12.530;2022-07-24T11:51:52;21.40;99.90
13426;DHT22;6785;57.918;12.530;2022-07-24T11:54:24;21.40;99.90
13426;DHT22;6785;57.918;12.530;2022-07-24T11:56:52;21.50;99.90
13426;DHT22;6785;57.918;12.530;2022-07-24T11:59:23;21.50;99.90
13426;DHT22;6785;57.918;12.530;2022-07-24T12:01:55;21.70;99.90
13426;DHT22;6785;57.918;12.530;2022-07-24T12:04:22;21.80;99.90
13426;DHT22;6785;57.918;12.530;2022-07-24T12:06:49;22.00;99.90
13426;DHT22;6785;57.918;12.530;2022-07-24T12:09:16;22.10;99.90
13426;DHT22;6785;57.918;12.530;2022-07-24T12:11:43;22.30;99.90
13426;DHT22;6785;57.918;12.530;2022-07-24T12:14:14;22.50;99.90
13426;DHT22;6785;57.918;12.530;2022-07-24T12:16:42;22.70;99.90
13426;DHT22;6785;57.918;12.530;2022-07-24T12:19:18;22.80;99.90
13426;DHT22;6785;57.918;12.530;2022-07-24T12:21:46;22.70;99.90
13426;DHT22;6785;57.918;12.530;2022-07-24T12:24:14;22.50;99.90
13426;DHT22;6785;57.918;12.530;2022-07-24T12:26:52;22.40;99.90
13426;DHT22;6785;57.918;12.530;2022-07-24T12:29:20;22.20;99.90
13426;DHT22;6785;57.918;12.530;2022-07-24T12:31:46;22.20;99.90
13426;DHT22;6785;57.918;12.530;2022-07-24T12:34:13;22.00;99.90
13426;DHT22;6785;57.918;12.530;2022-07-24T12:36:42;21.90;99.90
13426;DHT22;6785;57.918;12.530;2022-07-24T12:39:11;22.00;99.90
13426;DHT22;6785;57.918;12.530;2022-07-24T12:41:45;22.00;99.90
13426;DHT22;6785;57.918;12.530;2022-07-24T12:44:13;21.80;99.90
13426;DHT22;6785;57.918;12.530;2022-07-24T12:46:41;21.80;99.90
13426;DHT22;6785;57.918;12.530;2022-07-24T12:49:10;21.90;99.90
13426;DHT22;6785;57.918;12.530;2022-07-24T12:51:49;21.90;99.90
13426;DHT22;6785;57.918;12.530;2022-07-24T12:54:19;21.80;99.90
13426;DHT22;6785;57.918;12.530;2022-07-24T12:56:47;21.80;99.90
13426;DHT22;6785;57.918;12.530;2022-07-24T12:59:26;21.70;99.90
13426;DHT22;6785;57.918;12.530;2022-07-24T13:01:56;21.50;99.90
13426;DHT22;6785;57.918;12.530;2022-07-24T13:04:24;21.60;99.90
13426;DHT22;6785;57.918;12.530;2022-07-24T13:06:53;21.50;99.90
13426;DHT22;6785;57.918;12.530;2022-07-24T13:09:21;21.60;99.90
13426;DHT22;6785;57.918;12.530;2022-07-24T13:11:50;21.40;99.90
13426;DHT22;6785;57.918;12.530;2022-07-24T13:14:18;21.30;99.90
13426;DHT22;6785;57.918;12.530;2022-07-24T13:16:48;21.20;99.90
13426;DHT22;6785;57.918;12.530;2022-07-24T13:19:17;21.20;99.90
13426;DHT22;6785;57.918;12.530;2022-07-24T13:21:44;21.00;99.90
13426;DHT22;6785;57.918;12.530;2022-07-24T13:24:14;21.10;99.90
13426;DHT22;6785;57.918;12.530;2022-07-24T13:26:43;21.10;99.90
13426;DHT22;6785;57.918;12.530;2022-07-24T13:29:10;21.00;99.90
13426;DHT22;6785;57.918;12.530;2022-07-24T13:31:38;20.80;99.90
13426;DHT22;6785;57.918;12.530;2022-07-24T13:34:05;20.80;99.90
13426;DHT22;6785;57.918;12.530;2022-07-24T13:36:33;20.80;99.90
13426;DHT22;6785;57.918;12.530;2022-07-24T13:39:00;20.70;99.90
13426;DHT22;6785;57.918;12.530;2022-07-24T13:41:28;20.70;99.90
13426;DHT22;6785;57.918;12.530;2022-07-24T13:43:55;20.50;99.90
13426;DHT22;6785;57.918;12.530;2022-07-24T13:46:22;20.60;99.90
13426;DHT22;6785;57.918;12.530;2022-07-24T13:48:50;20.60;99.90
13426;DHT22;6785;57.918;12.530;2022-07-24T13:51:17;20.60;99.90
13426;DHT22;6785;57.918;12.530;2022-07-24T13:53:45;20.60;99.90
13426;DHT22;6785;57.918;12.530;2022-07-24T13:56:12;20.60;99.90
13426;DHT22;6785;57.918;12.530;2022-07-24T13:58:41;20.50;99.90
13426;DHT22;6785;57.918;12.530;2022-07-24T14:01:09;20.40;99.90
13426;DHT22;6785;57.918;12.530;2022-07-24T14:03:38;20.30;99.90
13426;DHT22;6785;57.918;12.530;2022-07-24T14:06:07;20.20;99.90
13426;DHT22;6785;57.918;12.530;2022-07-24T14:08:35;20.10;99.90
13426;DHT22;6785;57.918;12.530;2022-07-24T14:11:02;19.90;99.90
13426;DHT22;6785;57.918;12.530;2022-07-24T14:13:29;19.70;99.90
13426;DHT22;6785;57.918;12.530;2022-07-24T14:15:57;19.60;99.90
13426;DHT22;6785;57.918;12.530;2022-07-24T14:18:24;19.50;99.90
13426;DHT22;6785;57.918;12.530;2022-07-24T14:20:51;19.40;99.90
13426;DHT22;6785;57.918;12.530;2022-07-24T14:23:18;19.20;99.90
13426;DHT22;6785;57.918;12.530;2022-07-24T14:25:45;19.20;99.90
13426;DHT22;6785;57.918;12.530;2022-07-24T14:28:13;19.20;99.90
13426;DHT22;6785;57.918;12.530;2022-07-24T14:30:40;19.10;99.90
13426;DHT22;6785;57.918;12.530;2022-07-24T14:33:08;18.80;99.90
13426;DHT22;6785;57.918;12.530;2022-07-24T14:35:35;18.70;99.90
13426;DHT22;6785;57.918;12.530;2022-07-24T14:38:02;18.80;99.90
13426;DHT22;6785;57.918;12.530;2022-07-24T14:40:29;18.70;99.90
13426;DHT22;6785;57.918;12.530;2022-07-24T14:42:56;18.70;99.90
13426;DHT22;6785;57.918;12.530;2022-07-24T14:45:23;18.80;99.90
13426;DHT22;6785;57.918;12.530;2022-07-24T14:47:50;18.90;99.90
13426;DHT22;6785;57.918;12.530;2022-07-24T14:50:18;18.90;99.90
13426;DHT22;6785;57.918;12.530;2022-07-24T14:52:46;19.00;99.90
13426;DHT22;6785;57.918;12.530;2022-07-24T14:55:13;18.90;99.90
13426;DHT22;6785;57.918;12.530;2022-07-24T14:57:40;18.90;99.90
13426;DHT22;6785;57.918;12.530;2022-07-24T15:00:08;18.80;99.90
13426;DHT22;6785;57.918;12.530;2022-07-24T15:02:35;18.70;99.90
13426;DHT22;6785;57.918;12.530;2022-07-24T15:05:02;18.70;99.90
13426;DHT22;6785;57.918;12.530;2022-07-24T15:07:30;18.70;99.90
13426;DHT22;6785;57.918;12.530;2022-07-24T15:09:57;18.50;99.90
13426;DHT22;6785;57.918;12.530;2022-07-24T15:12:24;18.40;99.90
13426;DHT22;6785;57.918;12.530;2022-07-24T15:14:51;18.30;99.90
13426;DHT22;6785;57.918;12.530;2022-07-24T15:17:18;18.30;99.90
13426;DHT22;6785;57.918;12.530;2022-07-24T15:19:45;18.40;99.90
13426;DHT22;6785;57.918;12.530;2022-07-24T15:22:12;18.30;99.90
13426;DHT22;6785;57.918;12.530;2022-07-24T15:24:40;18.30;99.90
13426;DHT22;6785;57.918;12.530;2022-07-24T15:27:07;18.20;99.90
13426;DHT22;6785;57.918;12.530;2022-07-24T15:29:34;18.30;99.90
13426;DHT22;6785;57.918;12.530;2022-07-24T15:32:01;18.30;99.90
13426;DHT22;6785;57.918;12.530;2022-07-24T15:34:28;18.40;99.90
13426;DHT22;6785;57.918;12.530;2022-07-24T15:36:56;18.40;99.90
13426;DHT22;6785;57.918;12.530;2022-07-24T15:39:22;18.50;99.90
13426;DHT22;6785;57.918;12.530;2022-07-24T15:41:51;18.60;99.90